createdAt,value
2023-04-22T00:07:45.722Z,42.30
2023-04-22T00:16:08.931Z,46.70
2023-04-22T00:24:32.052Z,43.50
2023-04-22T00:32:55.309Z,49.30
2023-04-22T00:41:18.486Z,38.20
2023-04-22T00:49:42.166Z,33.30
2023-04-22T00:58:05.653Z,109.80
2023-04-22T01:06:30.033Z,37.50
2023-04-22T01:14:53.049Z,33.80
2023-04-22T01:23:24.809Z,34.50
2023-04-22T01:31:47.991Z,34.60
2023-04-22T01:40:11.742Z,29.90
2023-04-22T01:48:35.892Z,28.40
2023-04-22T01:56:59.271Z,26.40
2023-04-22T02:05:22.405Z,23.80
2023-04-22T02:13:45.469Z,25.60
2023-04-22T02:22:08.840Z,31.20
2023-04-22T02:30:32.238Z,27.90
2023-04-22T02:38:55.319Z,25.60
2023-04-22T02:47:18.307Z,28.90
2023-04-22T02:55:42.081Z,35.80
2023-04-22T03:04:05.206Z,35.70
2023-04-22T03:12:28.326Z,34.10
2023-04-22T03:20:51.612Z,33.00
2023-04-22T03:29:14.940Z,33.30
2023-04-22T03:37:40.254Z,28.50
2023-04-22T03:46:04.180Z,29.40
2023-04-22T03:54:29.651Z,40.70
2023-04-22T04:02:53.011Z,68.90
2023-04-22T04:11:17.971Z,40.10
2023-04-22T04:19:42.633Z,38.10
2023-04-22T04:28:09.677Z,25.60
2023-04-22T04:36:33.448Z,29.30
2023-04-22T04:45:07.771Z,49.60
2023-04-22T04:53:31.582Z,37.00
2023-04-22T05:01:55.193Z,26.60
2023-04-22T05:10:18.793Z,34.20
2023-04-22T05:18:42.141Z,34.40
2023-04-22T05:27:06.296Z,34.90
2023-04-22T05:35:29.997Z,35.90
2023-04-22T05:43:54.826Z,29.20
2023-04-22T05:52:18.931Z,28.20
2023-04-22T06:00:56.967Z,26.60
2023-04-22T06:10:02.220Z,28.10
2023-04-22T06:18:28.334Z,18.10
2023-04-22T06:26:52.308Z,24.80
2023-04-22T06:35:18.820Z,15.00
2023-04-22T06:43:41.895Z,17.90
2023-04-22T06:52:05.751Z,15.60
2023-04-22T07:00:30.411Z,15.00
2023-04-22T07:08:55.015Z,11.90
2023-04-22T07:17:22.312Z,13.10
2023-04-22T07:25:45.357Z,10.70
2023-04-22T07:34:10.741Z,9.30
2023-04-22T07:42:33.699Z,15.30
2023-04-22T07:50:56.679Z,12.20
2023-04-22T07:59:19.695Z,10.40
2023-04-22T08:07:42.664Z,15.90
2023-04-22T08:16:07.543Z,19.40
2023-04-22T08:24:30.606Z,11.80
2023-04-22T08:32:53.706Z,5.50
2023-04-22T08:41:18.971Z,7.90
2023-04-22T08:49:42.691Z,9.40
2023-04-22T08:58:06.298Z,7.90
2023-04-22T09:06:32.446Z,7.50
2023-04-22T09:14:56.429Z,6.90
2023-04-22T09:23:19.389Z,6.30
2023-04-22T09:31:43.278Z,18.60
2023-04-22T09:40:07.667Z,6.00
2023-04-22T09:48:30.759Z,7.20
2023-04-22T09:56:53.909Z,4.30
2023-04-22T10:05:18.079Z,5.70
2023-04-22T10:13:41.047Z,7.20
2023-04-22T10:22:04.918Z,14.20
2023-04-22T10:30:30.706Z,6.70
2023-04-22T10:38:53.880Z,14.90
2023-04-22T10:47:28.914Z,6.50
2023-04-22T10:55:53.182Z,4.60
2023-04-22T11:04:23.553Z,4.70
2023-04-22T11:12:49.771Z,11.00
2023-04-22T11:21:14.489Z,3.20
2023-04-22T11:29:37.695Z,3.50
2023-04-22T11:38:09.977Z,8.80
2023-04-22T11:46:39.597Z,5.30
2023-04-22T11:55:02.647Z,2.00
2023-04-22T12:03:30.470Z,11.80
2023-04-22T12:11:53.551Z,5.40
2023-04-22T12:20:16.435Z,5.60
2023-04-22T12:28:40.278Z,3.70
2023-04-22T12:37:03.521Z,15.70
2023-04-22T12:45:26.487Z,18.10
2023-04-22T12:53:49.375Z,4.20
2023-04-22T13:02:12.431Z,4.10
2023-04-22T13:10:36.132Z,4.40
2023-04-22T13:18:59.278Z,3.60
2023-04-22T13:27:22.210Z,4.90
2023-04-22T13:35:45.257Z,11.10
2023-04-22T13:44:08.419Z,13.30
2023-04-22T13:52:31.492Z,8.80
2023-04-22T14:00:54.997Z,2.80
2023-04-22T14:09:18.585Z,2.70
2023-04-22T14:17:41.942Z,3.90
2023-04-22T14:26:06.809Z,9.80
2023-04-22T14:34:29.801Z,10.80
2023-04-22T14:42:52.955Z,5.30
2023-04-22T14:51:16.044Z,8.00
2023-04-22T14:59:39.067Z,6.60
2023-04-22T15:08:02.559Z,6.30
2023-04-22T15:16:26.123Z,8.30
2023-04-22T15:24:49.200Z,54.60
2023-04-22T15:33:12.170Z,4.60
2023-04-22T15:41:35.363Z,4.00
2023-04-22T15:50:07.014Z,10.60
2023-04-22T15:58:32.483Z,7.00
2023-04-22T16:06:59.323Z,8.10
2023-04-22T16:15:24.336Z,13.40
2023-04-22T16:23:48.674Z,4.60
2023-04-22T16:32:11.703Z,22.70
2023-04-22T16:40:35.439Z,6.30
2023-04-22T16:48:58.560Z,17.40
2023-04-22T16:57:21.662Z,29.00
2023-04-22T17:05:44.739Z,78.40
2023-04-22T17:14:07.893Z,60.80
2023-04-22T17:22:30.791Z,32.40
2023-04-22T17:30:53.872Z,17.10
2023-04-22T17:39:16.910Z,27.80
2023-04-22T17:47:39.975Z,36.30
2023-04-22T17:56:03.112Z,81.30
2023-04-22T18:04:26.123Z,40.60
2023-04-22T18:12:49.618Z,20.40
2023-04-22T18:21:12.558Z,27.40
2023-04-22T18:29:36.006Z,51.40
2023-04-22T18:38:01.116Z,70.30
2023-04-22T18:46:24.414Z,162.40
2023-04-22T18:54:47.423Z,57.10
2023-04-22T19:03:10.855Z,150.50
2023-04-22T19:11:34.057Z,78.50
2023-04-22T19:19:57.216Z,73.10
2023-04-22T19:28:20.208Z,59.90
2023-04-22T19:36:43.392Z,90.50
2023-04-22T19:45:11.613Z,86.80
2023-04-22T19:53:35.641Z,84.60
2023-04-22T20:01:59.191Z,111.00
2023-04-22T20:10:22.915Z,65.50
2023-04-22T20:18:46.585Z,85.80
2023-04-22T20:27:09.791Z,90.60
2023-04-22T20:35:35.396Z,77.00
2023-04-22T20:43:58.518Z,101.10
2023-04-22T20:52:21.820Z,100.90
2023-04-22T21:00:45.909Z,100.80
2023-04-22T21:09:10.676Z,90.70
2023-04-22T21:17:35.683Z,65.00
2023-04-22T21:26:01.856Z,59.50
2023-04-22T21:34:24.977Z,92.80
2023-04-22T21:42:49.426Z,74.00
2023-04-22T21:51:12.593Z,66.30
2023-04-22T21:59:35.600Z,60.00
2023-04-22T22:07:58.677Z,63.80
2023-04-22T22:16:21.828Z,56.30
2023-04-22T22:24:45.657Z,45.70
2023-04-22T22:33:08.703Z,47.00
2023-04-22T22:41:32.776Z,40.80
2023-04-22T22:49:55.724Z,39.70
2023-04-22T22:58:18.640Z,47.20
2023-04-22T23:06:41.728Z,45.20
2023-04-22T23:15:06.138Z,51.10
2023-04-22T23:23:29.906Z,51.20
2023-04-22T23:31:53.103Z,45.20
2023-04-22T23:40:16.270Z,41.90
2023-04-22T23:48:39.696Z,50.30
2023-04-22T23:57:02.875Z,49.20
